createdAt,value
2023-11-26T00:01:55.018Z,72.86
2023-11-26T00:04:21.794Z,72.73
2023-11-26T00:06:48.606Z,72.59
2023-11-26T00:09:16.423Z,72.57
2023-11-26T00:11:44.083Z,72.74
2023-11-26T00:14:10.803Z,72.82
2023-11-26T00:16:38.698Z,72.63
2023-11-26T00:19:06.152Z,72.71
2023-11-26T00:21:35.835Z,72.58
2023-11-26T00:24:02.745Z,72.89
2023-11-26T00:26:29.871Z,72.88
2023-11-26T00:28:56.621Z,72.80
2023-11-26T00:31:23.282Z,72.86
2023-11-26T00:33:50.029Z,72.78
2023-11-26T00:36:17.457Z,72.69
2023-11-26T00:38:45.762Z,72.64
2023-11-26T00:41:14.356Z,72.92
2023-11-26T00:43:41.605Z,72.84
2023-11-26T00:46:08.800Z,72.56
2023-11-26T00:48:35.477Z,72.49
2023-11-26T00:51:02.169Z,72.67
2023-11-26T00:53:29.022Z,72.49
2023-11-26T00:55:55.764Z,72.94
2023-11-26T00:58:22.521Z,72.70
2023-11-26T01:00:49.319Z,72.81
2023-11-26T01:03:16.437Z,72.85
2023-11-26T01:05:43.445Z,72.68
2023-11-26T01:08:10.096Z,72.83
2023-11-26T01:10:36.836Z,72.72
2023-11-26T01:13:03.514Z,72.75
2023-11-26T01:15:30.182Z,72.78
2023-11-26T01:17:57.120Z,72.77
2023-11-26T01:20:23.946Z,72.83
2023-11-26T01:22:50.694Z,73.21
2023-11-26T01:25:17.517Z,72.97
2023-11-26T01:27:44.385Z,73.45
2023-11-26T01:30:11.666Z,73.24
2023-11-26T01:32:38.414Z,73.21
2023-11-26T01:35:05.982Z,73.50
2023-11-26T01:37:34.305Z,73.36
2023-11-26T01:40:01.187Z,73.00
2023-11-26T01:42:27.947Z,73.03
2023-11-26T01:44:54.651Z,72.89
2023-11-26T01:47:21.712Z,72.79
2023-11-26T01:49:48.783Z,73.01
2023-11-26T01:52:16.023Z,72.97
2023-11-26T01:54:43.819Z,72.54
2023-11-26T01:57:15.529Z,72.52
2023-11-26T01:59:42.435Z,72.75
2023-11-26T02:02:09.176Z,72.46
2023-11-26T02:04:36.990Z,72.54
2023-11-26T02:07:04.871Z,72.40
2023-11-26T02:09:31.636Z,72.42
2023-11-26T02:11:58.337Z,72.30
2023-11-26T02:14:25.131Z,72.39
2023-11-26T02:16:52.199Z,72.14
2023-11-26T02:19:39.498Z,72.20
2023-11-26T02:22:09.623Z,71.76
2023-11-26T02:24:41.589Z,72.10
2023-11-26T02:27:08.363Z,71.99
2023-11-26T02:29:35.666Z,71.42
2023-11-26T02:32:02.367Z,71.46
2023-11-26T02:34:29.084Z,71.80
2023-11-26T02:36:55.785Z,71.57
2023-11-26T02:39:22.440Z,71.46
2023-11-26T02:41:49.082Z,71.24
2023-11-26T02:44:15.816Z,71.23
2023-11-26T02:46:44.190Z,70.87
2023-11-26T02:49:11.057Z,70.80
2023-11-26T02:51:37.981Z,70.78
2023-11-26T02:54:04.745Z,70.98
2023-11-26T02:56:31.480Z,71.16
2023-11-26T02:58:58.364Z,70.83
2023-11-26T03:01:28.125Z,70.84
2023-11-26T03:03:54.905Z,70.75
2023-11-26T03:06:24.335Z,70.88
2023-11-26T03:09:00.892Z,71.06
2023-11-26T03:11:47.225Z,71.07
2023-11-26T03:14:15.369Z,70.84
2023-11-26T03:16:48.501Z,70.96
2023-11-26T03:19:16.087Z,70.83
2023-11-26T03:21:49.324Z,70.80
2023-11-26T03:24:18.435Z,70.64
2023-11-26T03:26:45.157Z,70.77
2023-11-26T03:29:11.927Z,70.96
2023-11-26T03:31:38.787Z,70.86
2023-11-26T03:34:09.595Z,70.96
2023-11-26T03:36:38.044Z,70.76
2023-11-26T03:39:05.154Z,70.79
2023-11-26T03:41:32.126Z,70.48
2023-11-26T03:43:58.968Z,70.64
2023-11-26T03:46:25.652Z,70.58
2023-11-26T03:48:53.192Z,70.11
2023-11-26T03:51:24.615Z,70.30
2023-11-26T03:53:51.337Z,70.07
2023-11-26T03:56:18.162Z,70.02
2023-11-26T03:58:45.297Z,70.10
2023-11-26T04:01:12.980Z,70.09
2023-11-26T04:03:40.257Z,69.80
2023-11-26T04:06:07.338Z,70.01
2023-11-26T04:08:34.273Z,69.69
2023-11-26T04:11:01.131Z,69.62
2023-11-26T04:13:30.674Z,69.39
2023-11-26T04:16:00.056Z,69.76
2023-11-26T04:18:28.846Z,69.82
2023-11-26T04:20:56.425Z,69.74
2023-11-26T04:23:23.997Z,69.78
2023-11-26T04:25:51.327Z,69.91
2023-11-26T04:28:18.038Z,69.83
2023-11-26T04:30:44.973Z,69.67
2023-11-26T04:33:11.757Z,69.92
2023-11-26T04:35:39.035Z,69.92
2023-11-26T04:38:05.776Z,70.14
2023-11-26T04:40:32.495Z,69.96
2023-11-26T04:42:59.272Z,69.94
2023-11-26T04:45:25.887Z,70.33
2023-11-26T04:47:52.610Z,70.04
2023-11-26T04:50:19.882Z,70.25
2023-11-26T04:52:46.574Z,70.49
2023-11-26T04:55:13.926Z,70.64
2023-11-26T04:57:40.637Z,70.70
2023-11-26T05:00:13.128Z,70.62
2023-11-26T05:02:41.922Z,70.82
2023-11-26T05:05:11.177Z,71.01
2023-11-26T05:07:38.679Z,70.76
2023-11-26T05:10:09.673Z,70.98
2023-11-26T05:12:36.806Z,70.78
2023-11-26T05:15:10.023Z,70.85
2023-11-26T05:17:36.832Z,70.71
2023-11-26T05:20:04.443Z,71.11
2023-11-26T05:22:31.138Z,70.90
2023-11-26T05:24:57.827Z,71.02
2023-11-26T05:27:24.461Z,70.91
2023-11-26T05:29:51.140Z,71.26
2023-11-26T05:32:17.906Z,71.11
2023-11-26T05:34:44.684Z,71.09
2023-11-26T05:37:12.922Z,70.97
2023-11-26T05:39:39.749Z,70.79
2023-11-26T05:42:07.010Z,70.88
2023-11-26T05:44:33.746Z,70.83
2023-11-26T05:47:00.536Z,70.69
2023-11-26T05:49:27.810Z,70.71
2023-11-26T05:51:58.015Z,70.67
2023-11-26T05:54:25.456Z,70.93
2023-11-26T05:56:52.086Z,70.54
2023-11-26T05:59:18.731Z,70.90
2023-11-26T06:01:45.815Z,70.59
2023-11-26T06:04:12.587Z,70.54
2023-11-26T06:06:39.280Z,70.08
2023-11-26T06:09:07.011Z,70.41
2023-11-26T06:11:33.747Z,70.30
2023-11-26T06:14:00.551Z,70.42
2023-11-26T06:16:27.406Z,70.13
2023-11-26T06:18:54.057Z,70.45
2023-11-26T06:21:20.823Z,70.14
2023-11-26T06:23:47.834Z,70.23
2023-11-26T06:26:18.440Z,70.20
2023-11-26T06:28:45.130Z,70.51
2023-11-26T06:31:20.244Z,70.55
2023-11-26T06:33:48.077Z,70.37
2023-11-26T06:36:25.519Z,70.60
2023-11-26T06:38:53.215Z,70.74
2023-11-26T06:41:28.879Z,70.55
2023-11-26T06:43:56.672Z,70.53
2023-11-26T06:46:24.693Z,70.79
2023-11-26T06:48:52.286Z,70.60
2023-11-26T06:51:22.575Z,70.75
2023-11-26T06:53:50.416Z,70.58
2023-11-26T06:56:17.625Z,70.72
2023-11-26T06:58:45.975Z,70.57
2023-11-26T07:01:13.017Z,70.66
2023-11-26T07:03:40.500Z,70.53
2023-11-26T07:06:08.911Z,70.73
2023-11-26T07:08:40.634Z,70.57
2023-11-26T07:11:15.805Z,70.73
2023-11-26T07:13:43.467Z,70.47
2023-11-26T07:16:10.353Z,70.50
2023-11-26T07:18:37.075Z,70.57
2023-11-26T07:21:04.452Z,70.33
2023-11-26T07:23:31.073Z,70.44
2023-11-26T07:25:57.698Z,70.29
2023-11-26T07:28:25.899Z,70.29
2023-11-26T07:30:52.612Z,69.81
2023-11-26T07:33:19.315Z,69.79
2023-11-26T07:35:45.971Z,69.93
2023-11-26T07:38:12.662Z,69.44
2023-11-26T07:40:39.552Z,69.58
2023-11-26T07:43:06.750Z,69.53
2023-11-26T07:45:33.505Z,69.54
2023-11-26T07:48:00.795Z,69.19
2023-11-26T07:50:27.577Z,69.54
2023-11-26T07:52:54.979Z,69.16
2023-11-26T07:55:22.106Z,68.85
2023-11-26T07:57:48.985Z,68.76
2023-11-26T08:00:18.716Z,68.55
2023-11-26T08:02:48.615Z,68.58
2023-11-26T08:05:20.014Z,68.20
2023-11-26T08:07:47.311Z,68.04
2023-11-26T08:10:19.905Z,68.14
2023-11-26T08:12:47.054Z,67.89
2023-11-26T08:15:16.270Z,67.52
2023-11-26T08:17:43.241Z,67.38
2023-11-26T08:20:12.532Z,67.11
2023-11-26T08:22:41.830Z,67.16
2023-11-26T08:25:14.212Z,66.72
2023-11-26T08:27:41.405Z,66.94
2023-11-26T08:30:13.953Z,66.66
2023-11-26T08:32:48.147Z,66.24
2023-11-26T08:35:15.554Z,65.53
2023-11-26T08:37:45.507Z,65.43
2023-11-26T08:40:15.503Z,65.67
2023-11-26T08:42:42.730Z,65.77
2023-11-26T08:45:10.500Z,65.31
2023-11-26T08:47:37.542Z,65.08
2023-11-26T08:50:05.987Z,64.90
2023-11-26T08:52:35.324Z,64.69
2023-11-26T08:55:02.945Z,64.58
2023-11-26T08:57:29.783Z,64.43
2023-11-26T08:59:56.536Z,64.22
2023-11-26T09:02:24.424Z,64.08
2023-11-26T09:04:51.448Z,63.65
2023-11-26T09:07:18.974Z,63.98
2023-11-26T09:09:45.802Z,63.82
2023-11-26T09:12:12.564Z,63.47
2023-11-26T09:14:39.343Z,63.67
2023-11-26T09:17:06.849Z,63.36
2023-11-26T09:19:34.128Z,63.37
2023-11-26T09:22:03.753Z,62.72
2023-11-26T09:24:30.557Z,62.20
2023-11-26T09:26:57.213Z,61.85
2023-11-26T09:29:33.482Z,61.61
2023-11-26T09:32:00.800Z,61.39
2023-11-26T09:34:27.496Z,61.13
2023-11-26T09:36:54.286Z,60.85
2023-11-26T09:39:20.957Z,60.22
2023-11-26T09:41:47.751Z,60.54
2023-11-26T09:44:21.715Z,59.87
2023-11-26T09:46:51.107Z,59.13
2023-11-26T09:49:17.790Z,58.85
2023-11-26T09:51:52.076Z,58.73
2023-11-26T09:54:20.165Z,58.78
2023-11-26T09:56:47.819Z,58.15
2023-11-26T09:59:33.120Z,58.55
2023-11-26T10:02:02.317Z,58.33
2023-11-26T10:04:44.547Z,58.36
2023-11-26T10:07:18.065Z,58.25
2023-11-26T10:10:17.052Z,57.83
2023-11-26T10:13:07.049Z,57.50
2023-11-26T10:15:36.898Z,57.38
2023-11-26T10:18:10.984Z,57.59
2023-11-26T10:20:46.651Z,57.54
2023-11-26T10:23:16.466Z,57.01
2023-11-26T10:25:44.156Z,56.83
2023-11-26T10:28:20.187Z,57.03
2023-11-26T10:30:46.973Z,56.93
2023-11-26T10:33:14.263Z,56.97
2023-11-26T10:35:54.750Z,56.60
2023-11-26T10:38:29.378Z,56.52
2023-11-26T10:40:58.138Z,56.51
2023-11-26T10:43:25.103Z,56.20
2023-11-26T10:45:52.735Z,56.63
2023-11-26T10:48:21.789Z,56.42
2023-11-26T10:51:24.107Z,56.15
2023-11-26T10:54:11.154Z,56.03
2023-11-26T10:56:39.932Z,55.35
2023-11-26T10:59:11.048Z,55.70
2023-11-26T11:01:38.853Z,54.94
2023-11-26T11:04:13.470Z,54.93
2023-11-26T11:06:40.639Z,54.50
2023-11-26T11:09:14.251Z,54.25
2023-11-26T11:12:05.939Z,54.36
2023-11-26T11:14:33.729Z,54.11
2023-11-26T11:17:00.471Z,54.14
2023-11-26T11:19:50.879Z,53.95
2023-11-26T11:22:18.032Z,53.53
2023-11-26T11:24:44.745Z,52.99
2023-11-26T11:27:12.414Z,52.36
2023-11-26T11:29:40.137Z,52.63
2023-11-26T11:32:06.983Z,52.36
2023-11-26T11:34:33.859Z,52.31
2023-11-26T11:37:02.638Z,52.34
2023-11-26T11:39:48.551Z,52.26
2023-11-26T11:42:18.771Z,51.46
2023-11-26T11:44:45.935Z,50.97
2023-11-26T11:47:33.388Z,51.18
2023-11-26T11:50:00.188Z,51.73
2023-11-26T11:52:27.135Z,52.01
2023-11-26T11:55:15.464Z,52.45
2023-11-26T11:57:52.956Z,52.36
2023-11-26T12:00:23.800Z,52.96
2023-11-26T12:02:51.266Z,52.69
2023-11-26T12:05:28.828Z,53.23
2023-11-26T12:07:59.082Z,53.34
2023-11-26T12:10:27.829Z,53.34
2023-11-26T12:13:08.802Z,53.19
2023-11-26T12:15:36.894Z,53.48
2023-11-26T12:18:03.763Z,53.55
2023-11-26T12:20:30.630Z,53.62
2023-11-26T12:22:57.605Z,53.54
2023-11-26T12:25:24.657Z,53.43
2023-11-26T12:28:04.238Z,53.51
2023-11-26T12:30:31.431Z,53.80
2023-11-26T12:32:58.955Z,54.07
2023-11-26T12:35:28.773Z,54.02
2023-11-26T12:38:01.068Z,53.80
2023-11-26T12:40:31.706Z,53.79
2023-11-26T12:42:58.900Z,53.60
2023-11-26T12:45:26.860Z,54.27
2023-11-26T12:47:55.402Z,55.23
2023-11-26T12:50:22.916Z,56.25
2023-11-26T12:52:50.948Z,56.74
2023-11-26T12:55:19.286Z,57.43
2023-11-26T12:57:46.297Z,57.98
2023-11-26T13:00:15.520Z,58.13
2023-11-26T13:02:49.679Z,58.35
2023-11-26T13:05:30.466Z,58.63
2023-11-26T13:07:58.536Z,58.65
2023-11-26T13:10:59.312Z,58.55
2023-11-26T13:13:29.664Z,58.87
2023-11-26T13:15:58.324Z,58.97
2023-11-26T13:18:26.904Z,59.11
2023-11-26T13:20:57.488Z,59.08
2023-11-26T13:23:26.050Z,58.88
2023-11-26T13:25:53.450Z,59.21
2023-11-26T13:28:21.248Z,59.16
2023-11-26T13:30:48.746Z,59.65
2023-11-26T13:33:15.995Z,59.70
2023-11-26T13:35:44.605Z,59.87
2023-11-26T13:38:15.233Z,60.00
2023-11-26T13:40:43.937Z,59.93
2023-11-26T13:43:13.280Z,60.08
2023-11-26T13:45:42.130Z,60.77
2023-11-26T13:48:11.800Z,61.99
2023-11-26T13:50:39.865Z,62.55
2023-11-26T13:53:08.067Z,63.21
2023-11-26T13:55:35.425Z,63.95
2023-11-26T13:58:03.792Z,64.50
2023-11-26T14:00:32.907Z,64.59
2023-11-26T14:03:00.988Z,64.83
2023-11-26T14:05:28.385Z,64.79
2023-11-26T14:07:55.396Z,65.30
2023-11-26T14:10:23.788Z,65.58
2023-11-26T14:12:52.679Z,65.81
2023-11-26T14:15:20.937Z,66.39
2023-11-26T14:17:51.723Z,66.48
2023-11-26T14:20:19.915Z,66.42
2023-11-26T14:22:48.634Z,66.60
2023-11-26T14:25:17.122Z,66.64
2023-11-26T14:27:45.501Z,67.34
2023-11-26T14:30:14.198Z,67.41
2023-11-26T14:32:45.199Z,67.88
2023-11-26T14:35:13.119Z,68.37
2023-11-26T14:37:40.172Z,68.58
2023-11-26T14:40:19.455Z,69.49
2023-11-26T14:42:47.209Z,69.50
2023-11-26T14:45:16.165Z,69.67
2023-11-26T14:47:46.615Z,69.40
2023-11-26T14:50:18.768Z,69.59
2023-11-26T14:52:47.204Z,69.26
2023-11-26T14:55:16.365Z,69.17
2023-11-26T14:57:44.235Z,68.96
2023-11-26T15:00:12.237Z,68.56
2023-11-26T15:02:39.588Z,68.07
2023-11-26T15:05:08.095Z,68.06
2023-11-26T15:07:35.074Z,67.36
2023-11-26T15:10:01.849Z,67.55
2023-11-26T15:12:28.646Z,67.30
2023-11-26T15:14:55.333Z,66.93
2023-11-26T15:17:22.041Z,67.05
2023-11-26T15:19:51.073Z,66.82
2023-11-26T15:22:17.874Z,66.48
2023-11-26T15:24:48.493Z,66.19
2023-11-26T15:27:16.478Z,65.83
2023-11-26T15:29:43.373Z,65.58
2023-11-26T15:32:12.233Z,64.70
2023-11-26T15:34:39.778Z,62.84
2023-11-26T15:37:06.819Z,62.24
2023-11-26T15:39:33.672Z,61.85
2023-11-26T15:42:00.884Z,61.50
2023-11-26T15:44:29.679Z,61.36
2023-11-26T15:46:57.632Z,61.14
2023-11-26T15:49:27.555Z,61.54
2023-11-26T15:51:55.146Z,61.75
2023-11-26T15:54:22.159Z,61.05
2023-11-26T15:56:52.278Z,61.08
2023-11-26T15:59:19.022Z,60.26
2023-11-26T16:01:46.051Z,60.25
2023-11-26T16:04:12.820Z,60.06
2023-11-26T16:06:39.576Z,60.12
2023-11-26T16:09:06.895Z,60.10
2023-11-26T16:11:34.277Z,59.79
2023-11-26T16:14:01.503Z,59.54
2023-11-26T16:16:28.391Z,59.22
2023-11-26T16:18:55.255Z,59.05
2023-11-26T16:21:22.050Z,59.27
2023-11-26T16:23:49.115Z,58.97
2023-11-26T16:26:15.931Z,59.08
2023-11-26T16:28:42.673Z,59.46
2023-11-26T16:31:10.570Z,59.61
2023-11-26T16:33:55.756Z,59.64
2023-11-26T16:36:24.375Z,59.68
2023-11-26T16:38:53.583Z,59.40
2023-11-26T16:41:20.764Z,59.45
2023-11-26T16:43:49.325Z,59.25
2023-11-26T16:46:18.228Z,59.40
2023-11-26T16:48:46.388Z,59.40
2023-11-26T16:51:13.783Z,59.61
2023-11-26T16:53:40.840Z,59.60
2023-11-26T16:56:08.834Z,59.77
2023-11-26T16:58:36.041Z,59.79
2023-11-26T17:01:04.467Z,59.85
2023-11-26T17:03:35.169Z,59.97
2023-11-26T17:06:04.013Z,60.27
2023-11-26T17:08:31.035Z,60.37
2023-11-26T17:10:58.889Z,60.40
2023-11-26T17:13:31.908Z,60.58
2023-11-26T17:15:58.970Z,60.58
2023-11-26T17:18:25.781Z,60.52
2023-11-26T17:20:52.462Z,60.45
2023-11-26T17:23:19.254Z,60.91
2023-11-26T17:25:51.117Z,60.74
2023-11-26T17:28:19.374Z,60.62
2023-11-26T17:30:49.932Z,60.46
2023-11-26T17:33:18.002Z,60.42
2023-11-26T17:35:44.835Z,60.65
2023-11-26T17:38:13.057Z,60.76
2023-11-26T17:40:43.275Z,60.87
2023-11-26T17:43:10.442Z,60.88
2023-11-26T17:45:37.290Z,61.12
2023-11-26T17:48:05.035Z,60.80
2023-11-26T17:50:31.957Z,60.93
2023-11-26T17:53:07.230Z,61.05
2023-11-26T17:55:39.168Z,61.21
2023-11-26T17:58:06.001Z,61.06
2023-11-26T18:00:34.472Z,61.08
2023-11-26T18:03:03.757Z,61.43
2023-11-26T18:05:30.515Z,61.54
2023-11-26T18:07:58.556Z,61.46
2023-11-26T18:10:25.653Z,61.26
2023-11-26T18:12:55.398Z,61.33
2023-11-26T18:15:22.175Z,61.54
2023-11-26T18:17:50.455Z,61.55
2023-11-26T18:20:18.416Z,61.88
2023-11-26T18:22:45.427Z,61.60
2023-11-26T18:25:13.308Z,61.92
2023-11-26T18:27:40.570Z,61.69
2023-11-26T18:30:10.376Z,61.88
2023-11-26T18:32:37.626Z,61.92
2023-11-26T18:35:07.226Z,62.18
2023-11-26T18:37:33.895Z,62.23
2023-11-26T18:40:00.937Z,62.45
2023-11-26T18:42:27.912Z,62.70
2023-11-26T18:44:54.647Z,62.42
2023-11-26T18:47:21.917Z,62.48
2023-11-26T18:49:49.421Z,62.52
2023-11-26T18:52:18.226Z,62.96
2023-11-26T18:54:45.708Z,63.00
2023-11-26T18:57:12.810Z,63.12
2023-11-26T18:59:43.411Z,63.00
2023-11-26T19:02:12.727Z,63.32
2023-11-26T19:04:39.710Z,63.33
2023-11-26T19:07:07.110Z,63.56
2023-11-26T19:09:34.316Z,63.64
2023-11-26T19:12:01.235Z,63.67
2023-11-26T19:14:28.041Z,64.04
2023-11-26T19:17:01.824Z,63.97
2023-11-26T19:19:28.890Z,64.21
2023-11-26T19:21:56.090Z,64.00
2023-11-26T19:24:22.863Z,64.41
2023-11-26T19:30:17.541Z,64.05
2023-11-26T19:32:44.239Z,64.13
2023-11-26T19:41:27.762Z,64.33
2023-11-26T19:44:16.549Z,64.43
2023-11-26T19:46:43.509Z,64.70
2023-11-26T19:49:12.506Z,64.56
2023-11-26T19:51:46.400Z,64.61
2023-11-26T19:54:16.614Z,64.71
2023-11-26T19:56:47.691Z,64.79
2023-11-26T19:59:14.689Z,64.46
2023-11-26T20:01:41.426Z,64.66
2023-11-26T20:04:11.002Z,65.10
2023-11-26T20:06:40.602Z,65.03
2023-11-26T20:09:10.576Z,64.77
2023-11-26T20:11:37.393Z,65.10
2023-11-26T20:14:07.086Z,64.87
2023-11-26T20:16:37.762Z,64.99
2023-11-26T20:19:04.962Z,65.04
2023-11-26T20:21:33.373Z,65.20
2023-11-26T20:24:00.290Z,64.98
2023-11-26T20:26:27.403Z,65.15
2023-11-26T20:28:54.085Z,64.86
2023-11-26T20:31:21.083Z,64.79
2023-11-26T20:33:48.205Z,65.15
2023-11-26T20:36:22.905Z,65.19
2023-11-26T20:38:50.055Z,65.21
2023-11-26T20:41:16.846Z,65.22
2023-11-26T20:43:44.319Z,65.26
2023-11-26T20:46:20.014Z,65.54
2023-11-26T20:48:50.242Z,65.56
2023-11-26T20:51:26.578Z,65.35
2023-11-26T20:53:56.558Z,65.56
2023-11-26T20:56:24.672Z,65.47
2023-11-26T20:58:51.792Z,65.53
2023-11-26T21:01:18.532Z,65.56
2023-11-26T21:03:46.875Z,65.68
2023-11-26T21:06:14.666Z,65.82
2023-11-26T21:08:42.014Z,65.75
2023-11-26T21:11:10.956Z,65.99
2023-11-26T21:13:39.110Z,66.18
2023-11-26T21:16:07.434Z,66.31
2023-11-26T21:18:34.992Z,65.92
2023-11-26T21:21:02.301Z,66.01
2023-11-26T21:23:29.069Z,65.89
2023-11-26T21:25:55.910Z,66.32
2023-11-26T21:28:22.729Z,66.29
2023-11-26T21:30:49.713Z,66.27
2023-11-26T21:33:19.157Z,66.25
2023-11-26T21:35:46.330Z,66.52
2023-11-26T21:38:13.091Z,66.63
2023-11-26T21:40:45.501Z,66.48
2023-11-26T21:43:17.474Z,66.27
2023-11-26T21:45:44.584Z,66.34
2023-11-26T21:48:19.116Z,66.38
2023-11-26T21:50:46.697Z,66.54
2023-11-26T21:53:13.831Z,66.53
2023-11-26T21:55:40.689Z,66.69
2023-11-26T21:58:07.465Z,66.59
2023-11-26T22:00:34.647Z,66.87
2023-11-26T22:03:01.548Z,66.86
2023-11-26T22:05:28.700Z,66.78
2023-11-26T22:07:55.434Z,66.66
2023-11-26T22:10:22.317Z,66.67
2023-11-26T22:12:50.517Z,66.71
2023-11-26T22:15:17.545Z,66.93
2023-11-26T22:17:44.487Z,67.35
2023-11-26T22:20:12.444Z,67.36
2023-11-26T22:22:42.060Z,67.26
2023-11-26T22:25:10.534Z,67.07
2023-11-26T22:27:37.472Z,67.19
2023-11-26T22:30:07.411Z,67.31
2023-11-26T22:32:35.698Z,67.24
2023-11-26T22:35:02.978Z,67.55
2023-11-26T22:37:29.667Z,67.51
2023-11-26T22:39:56.507Z,67.44
2023-11-26T22:42:23.294Z,67.32
2023-11-26T22:44:50.003Z,67.47
2023-11-26T22:47:16.924Z,67.31
2023-11-26T22:49:43.677Z,67.55
2023-11-26T22:52:10.735Z,67.67
2023-11-26T22:54:37.692Z,67.50
2023-11-26T22:57:04.755Z,67.43
2023-11-26T22:59:31.448Z,67.38
2023-11-26T23:01:58.456Z,67.43
2023-11-26T23:04:25.436Z,67.35
2023-11-26T23:06:52.101Z,67.15
2023-11-26T23:09:19.141Z,66.82
2023-11-26T23:11:47.507Z,67.24
2023-11-26T23:14:14.291Z,66.88
2023-11-26T23:16:41.266Z,66.92
2023-11-26T23:19:08.324Z,66.99
2023-11-26T23:21:35.016Z,66.79
2023-11-26T23:24:01.850Z,66.50
2023-11-26T23:26:28.984Z,66.73
2023-11-26T23:28:55.684Z,66.66
2023-11-26T23:31:23.612Z,66.40
2023-11-26T23:33:51.179Z,66.58
2023-11-26T23:36:18.322Z,66.38
2023-11-26T23:38:45.318Z,66.19
2023-11-26T23:41:12.927Z,66.01
2023-11-26T23:43:41.005Z,65.93
2023-11-26T23:46:08.516Z,65.82
2023-11-26T23:48:35.405Z,65.86
2023-11-26T23:51:02.203Z,65.88
2023-11-26T23:53:29.224Z,65.97
2023-11-26T23:55:56.016Z,66.01
2023-11-26T23:58:22.722Z,65.90
